createdAt,value
2022-12-06T00:01:12.758Z,58.50
2022-12-06T00:04:39.891Z,58.80
2022-12-06T00:08:07.872Z,56.40
2022-12-06T00:11:37.107Z,58.20
2022-12-06T00:15:04.330Z,53.80
2022-12-06T00:18:31.639Z,56.00
2022-12-06T00:21:58.333Z,59.00
2022-12-06T00:25:25.293Z,57.60
2022-12-06T00:28:55.752Z,57.50
2022-12-06T00:32:22.825Z,57.00
2022-12-06T00:35:57.907Z,55.90
2022-12-06T00:39:24.714Z,53.60
2022-12-06T00:42:51.840Z,55.10
2022-12-06T00:46:21.063Z,56.70
2022-12-06T00:49:47.967Z,57.40
2022-12-06T00:53:15.107Z,54.30
2022-12-06T00:56:42.296Z,52.50
2022-12-06T01:00:11.469Z,54.60
2022-12-06T01:03:38.678Z,56.00
2022-12-06T01:07:06.325Z,57.40
2022-12-06T01:10:33.602Z,54.70
2022-12-06T01:14:00.368Z,56.10
2022-12-06T01:17:27.146Z,53.80
2022-12-06T01:20:54.128Z,57.30
2022-12-06T01:24:21.004Z,58.10
2022-12-06T01:27:47.832Z,58.20
2022-12-06T01:31:15.261Z,55.30
2022-12-06T01:34:42.095Z,56.90
2022-12-06T01:38:08.863Z,55.30
2022-12-06T01:41:35.763Z,54.70
2022-12-06T01:45:02.886Z,57.00
2022-12-06T01:48:30.686Z,56.60
2022-12-06T01:52:02.081Z,59.20
2022-12-06T01:55:33.795Z,55.40
2022-12-06T01:59:02.074Z,57.60
2022-12-06T02:02:28.978Z,56.20
2022-12-06T02:05:57.898Z,56.80
2022-12-06T02:09:27.977Z,52.70
2022-12-06T02:12:59.763Z,55.00
2022-12-06T02:16:42.654Z,53.40
2022-12-06T02:20:23.534Z,52.80
2022-12-06T02:24:28.187Z,54.20
2022-12-06T02:28:15.165Z,52.60
2022-12-06T02:31:51.037Z,54.70
2022-12-06T02:35:26.310Z,54.70
2022-12-06T02:38:58.876Z,53.70
2022-12-06T02:42:30.031Z,52.80
2022-12-06T02:46:01.827Z,52.90
2022-12-06T02:49:34.077Z,56.20
2022-12-06T02:53:04.991Z,54.80
2022-12-06T02:56:32.998Z,53.90
2022-12-06T02:59:59.947Z,50.60
2022-12-06T03:03:44.487Z,53.20
2022-12-06T03:07:23.315Z,52.60
2022-12-06T03:10:59.137Z,52.40
2022-12-06T03:14:28.607Z,50.90
2022-12-06T03:17:59.769Z,52.70
2022-12-06T03:21:32.526Z,51.80
2022-12-06T03:25:02.214Z,52.20
2022-12-06T03:28:31.008Z,48.60
2022-12-06T03:32:01.923Z,49.10
2022-12-06T03:35:32.538Z,51.50
2022-12-06T03:39:02.764Z,52.30
2022-12-06T03:42:30.322Z,49.20
2022-12-06T03:46:03.028Z,52.20
2022-12-06T03:49:36.521Z,52.30
2022-12-06T03:53:04.102Z,51.90
2022-12-06T03:56:32.050Z,56.90
2022-12-06T03:59:59.229Z,52.80
2022-12-06T04:03:26.350Z,53.70
2022-12-06T04:06:53.889Z,54.30
2022-12-06T04:10:20.980Z,52.00
2022-12-06T04:13:48.171Z,53.40
2022-12-06T04:17:34.729Z,53.20
2022-12-06T04:21:21.565Z,52.20
2022-12-06T04:24:48.281Z,53.90
2022-12-06T04:28:33.000Z,51.50
2022-12-06T04:32:17.548Z,49.30
2022-12-06T04:36:02.419Z,53.40
2022-12-06T04:39:29.341Z,49.40
2022-12-06T04:43:14.266Z,50.20
2022-12-06T04:46:41.089Z,51.50
2022-12-06T04:50:10.130Z,51.90
2022-12-06T04:53:36.762Z,50.40
2022-12-06T04:57:03.803Z,49.30
2022-12-06T05:00:30.553Z,49.50
2022-12-06T05:03:57.481Z,49.70
2022-12-06T05:07:24.333Z,50.60
2022-12-06T05:10:52.287Z,51.00
2022-12-06T05:14:19.286Z,49.90
2022-12-06T05:17:46.109Z,49.90
2022-12-06T05:21:15.129Z,49.80
2022-12-06T05:24:42.438Z,52.00
2022-12-06T05:28:10.399Z,51.60
2022-12-06T05:31:37.092Z,50.30
2022-12-06T05:35:03.743Z,50.90
2022-12-06T05:38:30.396Z,49.60
2022-12-06T05:41:57.247Z,45.30
2022-12-06T05:45:24.337Z,51.50
2022-12-06T05:48:51.381Z,50.40
2022-12-06T05:52:18.076Z,46.20
2022-12-06T05:55:45.896Z,47.20
2022-12-06T05:59:12.722Z,47.30
2022-12-06T06:02:39.677Z,47.40
2022-12-06T06:06:07.441Z,48.40
2022-12-06T06:09:34.079Z,46.40
2022-12-06T06:13:00.933Z,49.50
2022-12-06T06:16:27.884Z,47.20
2022-12-06T06:19:54.779Z,45.60
2022-12-06T06:23:21.969Z,48.80
2022-12-06T06:26:48.658Z,51.10
2022-12-06T06:30:16.700Z,48.50
2022-12-06T06:33:43.846Z,47.50
2022-12-06T06:37:10.455Z,47.80
2022-12-06T06:40:37.513Z,46.90
2022-12-06T06:44:04.497Z,48.10
2022-12-06T06:47:31.605Z,43.30
2022-12-06T06:51:02.591Z,40.70
2022-12-06T06:54:29.835Z,34.10
2022-12-06T06:57:56.977Z,42.40
2022-12-06T07:01:25.342Z,39.10
2022-12-06T07:04:52.862Z,41.20
2022-12-06T07:08:20.051Z,38.50
2022-12-06T07:11:47.489Z,41.40
2022-12-06T07:15:15.959Z,43.70
2022-12-06T07:18:42.861Z,40.80
2022-12-06T07:22:10.574Z,38.60
2022-12-06T07:25:37.382Z,38.10
2022-12-06T07:29:04.396Z,39.60
2022-12-06T07:32:34.480Z,38.80
2022-12-06T07:36:11.900Z,41.60
2022-12-06T07:39:39.500Z,43.00
2022-12-06T07:43:23.872Z,46.20
2022-12-06T07:46:51.441Z,58.30
2022-12-06T07:50:20.550Z,56.40
2022-12-06T07:53:47.219Z,59.40
2022-12-06T07:57:13.895Z,61.00
2022-12-06T08:00:41.722Z,83.40
2022-12-06T08:04:09.041Z,104.80
2022-12-06T08:07:36.443Z,77.20
2022-12-06T08:11:04.024Z,108.50
2022-12-06T08:14:31.159Z,106.70
2022-12-06T08:17:58.223Z,103.90
2022-12-06T08:21:26.918Z,74.60
2022-12-06T08:24:53.739Z,72.20
2022-12-06T08:28:20.589Z,62.30
2022-12-06T08:31:48.427Z,55.40
2022-12-06T08:35:15.433Z,48.30
2022-12-06T08:38:43.585Z,46.60
2022-12-06T08:42:10.649Z,47.80
2022-12-06T08:45:37.509Z,43.80
2022-12-06T08:49:04.422Z,77.30
2022-12-06T08:52:31.344Z,66.60
2022-12-06T08:56:02.814Z,59.40
2022-12-06T08:59:29.900Z,62.50
2022-12-06T09:02:57.211Z,62.50
2022-12-06T09:06:24.544Z,52.70
2022-12-06T09:09:51.495Z,58.50
2022-12-06T09:13:18.756Z,46.60
2022-12-06T09:16:46.178Z,40.70
2022-12-06T09:20:18.157Z,37.60
2022-12-06T09:23:45.756Z,44.00
2022-12-06T09:27:12.539Z,38.40
2022-12-06T09:30:39.487Z,38.20
2022-12-06T09:34:06.342Z,40.90
2022-12-06T09:37:35.055Z,38.40
2022-12-06T09:41:12.429Z,42.70
2022-12-06T09:44:59.545Z,45.80
2022-12-06T09:48:51.543Z,44.70
2022-12-06T09:52:39.005Z,41.20
2022-12-06T09:56:13.091Z,37.70
2022-12-06T09:59:49.848Z,39.00
2022-12-06T10:03:49.577Z,34.40
2022-12-06T10:07:25.564Z,32.50
2022-12-06T10:11:08.300Z,33.00
2022-12-06T10:14:51.030Z,32.00
2022-12-06T10:18:33.433Z,33.50
2022-12-06T10:22:13.399Z,32.70
2022-12-06T10:25:49.545Z,34.80
2022-12-06T10:29:29.167Z,34.70
2022-12-06T10:33:05.503Z,33.20
2022-12-06T10:36:46.208Z,35.50
2022-12-06T10:40:19.264Z,34.60
2022-12-06T10:43:55.497Z,35.60
2022-12-06T10:47:26.551Z,34.20
2022-12-06T10:51:01.490Z,31.10
2022-12-06T10:54:35.276Z,31.70
2022-12-06T10:58:14.354Z,30.50
2022-12-06T11:01:44.346Z,31.80
2022-12-06T11:05:19.516Z,30.60
2022-12-06T11:08:50.925Z,30.70
2022-12-06T11:12:31.033Z,28.90
2022-12-06T11:16:04.753Z,31.20
2022-12-06T11:19:37.645Z,29.50
2022-12-06T11:23:20.609Z,38.10
2022-12-06T11:26:53.345Z,38.20
2022-12-06T11:30:21.949Z,41.30
2022-12-06T11:33:49.026Z,45.40
2022-12-06T11:37:19.958Z,47.20
2022-12-06T11:40:50.494Z,50.40
2022-12-06T11:44:20.522Z,48.40
2022-12-06T11:47:47.754Z,45.20
2022-12-06T11:51:20.195Z,41.00
2022-12-06T11:54:52.952Z,38.90
2022-12-06T11:58:26.945Z,39.10
2022-12-06T12:01:55.886Z,36.30
2022-12-06T12:05:25.770Z,38.20
2022-12-06T12:09:01.117Z,35.40
2022-12-06T12:12:51.632Z,36.70
2022-12-06T12:16:22.085Z,35.40
2022-12-06T12:19:53.570Z,36.90
2022-12-06T12:23:24.215Z,35.40
2022-12-06T12:26:51.223Z,33.20
2022-12-06T12:30:36.992Z,34.80
2022-12-06T12:34:20.064Z,32.80
2022-12-06T12:37:47.418Z,33.40
2022-12-06T12:41:33.735Z,33.50
2022-12-06T12:45:04.001Z,33.80
2022-12-06T12:48:31.306Z,32.50
2022-12-06T12:51:58.648Z,31.60
2022-12-06T12:55:28.156Z,34.10
2022-12-06T12:58:58.059Z,33.50
2022-12-06T13:02:29.738Z,35.40
2022-12-06T13:05:58.556Z,32.30
2022-12-06T13:09:29.186Z,31.30
2022-12-06T13:13:00.017Z,30.60
2022-12-06T13:16:31.850Z,30.10
2022-12-06T13:19:59.236Z,28.70
2022-12-06T13:23:28.474Z,27.10
2022-12-06T13:26:59.690Z,28.60
2022-12-06T13:30:29.874Z,29.40
2022-12-06T13:34:01.236Z,28.30
2022-12-06T13:37:35.179Z,32.00
2022-12-06T13:41:03.170Z,44.90
2022-12-06T13:44:43.843Z,75.10
2022-12-06T13:48:45.042Z,77.10
2022-12-06T13:52:31.820Z,83.90
2022-12-06T13:56:02.380Z,84.00
2022-12-06T13:59:40.455Z,69.70
2022-12-06T14:03:40.952Z,66.00
2022-12-06T14:17:26.786Z,66.60
2022-12-06T14:21:01.559Z,69.40
2022-12-06T14:24:37.352Z,52.70
2022-12-06T14:28:13.933Z,40.60
2022-12-06T14:31:42.245Z,54.80
2022-12-06T14:35:15.531Z,73.50
2022-12-06T14:38:42.322Z,48.80
2022-12-06T14:42:37.704Z,41.10
2022-12-06T14:46:06.974Z,36.20
2022-12-06T14:49:54.272Z,84.10
2022-12-06T14:53:31.863Z,57.90
2022-12-06T14:56:58.757Z,43.80
2022-12-06T15:00:31.780Z,48.30
2022-12-06T15:04:03.974Z,37.90
2022-12-06T15:07:42.607Z,32.50
2022-12-06T15:11:44.131Z,35.70
2022-12-06T15:15:33.744Z,35.50
2022-12-06T15:22:29.248Z,39.10
2022-12-06T15:25:56.984Z,37.00
2022-12-06T15:29:24.396Z,39.20
2022-12-06T15:32:51.194Z,32.80
2022-12-06T15:36:21.814Z,61.70
2022-12-06T15:39:49.033Z,61.90
2022-12-06T15:43:30.016Z,59.30
2022-12-06T15:46:57.233Z,65.90
2022-12-06T15:50:24.838Z,54.00
2022-12-06T15:53:51.933Z,38.50
2022-12-06T15:57:18.975Z,36.10
2022-12-06T16:00:47.693Z,32.30
2022-12-06T16:04:18.268Z,33.00
2022-12-06T16:07:45.071Z,31.40
2022-12-06T16:11:13.288Z,30.60
2022-12-06T16:14:40.257Z,30.50
2022-12-06T16:18:08.165Z,35.40
2022-12-06T16:21:37.141Z,31.00
2022-12-06T16:25:04.555Z,31.90
2022-12-06T16:28:31.493Z,50.90
2022-12-06T16:31:58.616Z,58.00
2022-12-06T16:35:25.644Z,45.90
2022-12-06T16:38:55.122Z,40.80
2022-12-06T16:42:21.925Z,35.30
2022-12-06T16:45:48.636Z,38.40
2022-12-06T16:53:08.349Z,37.60
2022-12-06T16:56:41.290Z,43.80
2022-12-06T17:00:15.500Z,46.60
2022-12-06T17:03:42.538Z,41.70
2022-12-06T17:07:09.295Z,30.00
2022-12-06T17:10:36.406Z,30.40
2022-12-06T17:14:03.470Z,27.70
2022-12-06T17:17:30.437Z,23.20
2022-12-06T17:20:57.160Z,22.40
2022-12-06T17:24:25.454Z,24.90
2022-12-06T17:27:52.822Z,24.90
2022-12-06T17:31:20.030Z,24.10
2022-12-06T17:34:47.269Z,26.00
2022-12-06T17:38:14.510Z,28.30
2022-12-06T17:41:59.165Z,29.20
2022-12-06T17:45:27.708Z,31.30
2022-12-06T17:48:55.198Z,31.90
2022-12-06T17:52:22.585Z,31.40
2022-12-06T17:55:49.633Z,34.30
2022-12-06T17:59:18.818Z,27.20
2022-12-06T18:02:46.003Z,26.40
2022-12-06T18:06:13.474Z,28.10
2022-12-06T18:09:40.610Z,34.50
2022-12-06T18:13:07.909Z,50.10
2022-12-06T18:16:37.748Z,33.80
2022-12-06T18:20:05.296Z,36.60
2022-12-06T18:23:32.098Z,37.40
2022-12-06T18:26:58.804Z,29.70
2022-12-06T18:30:25.749Z,28.90
2022-12-06T18:33:53.440Z,27.30
2022-12-06T18:37:20.558Z,26.20
2022-12-06T18:40:47.378Z,23.70
2022-12-06T18:44:14.416Z,22.10
2022-12-06T18:47:41.181Z,24.60
2022-12-06T18:51:10.341Z,30.10
2022-12-06T18:54:37.273Z,41.60
2022-12-06T18:58:03.860Z,36.70
2022-12-06T19:01:32.388Z,38.30
2022-12-06T19:05:00.493Z,35.00
2022-12-06T19:08:27.563Z,50.80
2022-12-06T19:11:54.474Z,63.40
2022-12-06T19:15:21.467Z,60.50
2022-12-06T19:18:48.621Z,50.90
2022-12-06T19:22:15.381Z,53.50
2022-12-06T19:25:42.408Z,42.60
2022-12-06T19:29:09.616Z,51.20
2022-12-06T19:32:37.160Z,37.10
2022-12-06T19:36:06.833Z,40.50
2022-12-06T19:39:34.131Z,38.80
2022-12-06T19:43:18.809Z,35.70
2022-12-06T19:46:48.203Z,30.40
2022-12-06T19:50:15.009Z,25.10
2022-12-06T19:53:43.064Z,23.90
2022-12-06T19:57:10.660Z,22.20
2022-12-06T20:00:39.282Z,24.20
2022-12-06T20:04:06.402Z,21.80
2022-12-06T20:07:34.441Z,28.30
2022-12-06T20:11:07.065Z,22.80
2022-12-06T20:14:37.315Z,20.10
2022-12-06T20:18:04.227Z,21.50
2022-12-06T20:21:31.027Z,21.80
2022-12-06T20:24:57.804Z,24.30
2022-12-06T20:28:25.150Z,23.00
2022-12-06T20:31:52.834Z,23.30
2022-12-06T20:35:20.250Z,21.20
2022-12-06T20:38:47.062Z,22.00
2022-12-06T20:42:13.874Z,33.40
2022-12-06T20:45:41.069Z,36.30
2022-12-06T20:49:08.141Z,29.70
2022-12-06T20:52:35.108Z,27.30
2022-12-06T20:56:06.539Z,33.40
2022-12-06T20:59:33.454Z,27.90
2022-12-06T21:03:00.384Z,32.10
2022-12-06T21:06:28.358Z,28.40
2022-12-06T21:09:55.268Z,23.10
2022-12-06T21:13:22.777Z,23.30
2022-12-06T21:16:49.624Z,16.30
2022-12-06T21:20:17.274Z,16.10
2022-12-06T21:23:44.431Z,16.70
2022-12-06T21:27:11.162Z,18.90
2022-12-06T21:30:38.242Z,19.20
2022-12-06T21:34:05.969Z,19.90
2022-12-06T21:37:33.232Z,19.10
2022-12-06T21:41:07.154Z,17.70
2022-12-06T21:44:34.243Z,17.70
2022-12-06T21:48:01.037Z,18.40
2022-12-06T21:51:29.628Z,30.50
2022-12-06T21:54:57.038Z,26.90
2022-12-06T21:58:23.919Z,32.80
2022-12-06T22:01:53.723Z,31.10
2022-12-06T22:05:20.916Z,30.00
2022-12-06T22:08:48.465Z,32.20
2022-12-06T22:12:15.393Z,28.20
2022-12-06T22:15:42.470Z,33.90
2022-12-06T22:19:09.747Z,34.90
2022-12-06T22:22:36.553Z,28.80
2022-12-06T22:26:09.297Z,31.70
2022-12-06T22:29:36.116Z,28.80
2022-12-06T22:33:02.827Z,33.10
2022-12-06T22:36:30.550Z,33.60
2022-12-06T22:39:57.763Z,31.10
2022-12-06T22:43:24.809Z,28.10
2022-12-06T22:46:52.285Z,27.80
2022-12-06T22:50:19.375Z,26.50
2022-12-06T22:53:48.084Z,22.40
2022-12-06T22:57:14.945Z,18.50
2022-12-06T23:00:41.884Z,17.60
2022-12-06T23:04:09.484Z,14.10
2022-12-06T23:07:36.413Z,14.90
2022-12-06T23:11:06.308Z,13.00
2022-12-06T23:14:33.146Z,14.70
2022-12-06T23:17:59.878Z,14.10
2022-12-06T23:21:28.343Z,14.10
2022-12-06T23:24:55.486Z,13.30
2022-12-06T23:28:24.133Z,13.00
2022-12-06T23:31:51.596Z,13.80
2022-12-06T23:35:18.522Z,13.00
2022-12-06T23:38:45.952Z,12.60
2022-12-06T23:42:12.773Z,12.20
2022-12-06T23:45:39.632Z,12.80
2022-12-06T23:49:07.141Z,13.00
2022-12-06T23:52:34.061Z,12.50
2022-12-06T23:56:02.319Z,13.00
2022-12-06T23:59:29.058Z,12.80
